Time;durP1;ratioP1;P1;durP2;ratioP2;P2;SDS_P1;SDS_P2;PMS_P1;PMS_P2;Temp;Humidity;BMP_temperature;BMP_pressure;BME280_temperature;BME280_humidity;BME280_pressure;Samples;Min_cycle;Max_cycle;Signal;HPM_P1;HPM_P2
2022/04/08 00:01:15;;;;;;;8.23;2.00;;;5.30;99.90;;;;;;5002358;28;20048;-66
2022/04/08 00:03:41;;;;;;;14.38;1.88;;;5.30;99.90;;;;;;4999900;28;20169;-66
2022/04/08 00:06:08;;;;;;;15.63;1.67;;;5.30;99.90;;;;;;5006815;28;20118;-65
2022/04/08 00:08:34;;;;;;;9.88;1.58;;;5.30;99.90;;;;;;5018244;28;20116;-65
2022/04/08 00:11:00;;;;;;;8.90;1.50;;;5.20;99.90;;;;;;5010694;28;20045;-65
2022/04/08 00:13:26;;;;;;;15.20;1.75;;;5.20;99.90;;;;;;5014205;28;20050;-66
2022/04/08 00:15:52;;;;;;;10.60;1.98;;;6.50;99.90;;;;;;5009422;28;20484;-66
2022/04/08 00:18:19;;;;;;;9.98;1.58;;;5.20;99.90;;;;;;5013528;28;20128;-66
2022/04/08 00:20:45;;;;;;;9.65;1.48;;;5.20;99.90;;;;;;5008859;28;20046;-68
2022/04/08 00:23:12;;;;;;;5.35;1.02;;;5.10;99.90;;;;;;5009592;28;20049;-66
2022/04/08 00:25:38;;;;;;;3.13;1.10;;;5.10;99.90;;;;;;5012058;28;20057;-68
2022/04/08 00:28:04;;;;;;;4.28;0.80;;;5.00;99.90;;;;;;5030509;28;20096;-65
2022/04/08 00:30:30;;;;;;;0.52;0.47;;;4.80;99.90;;;;;;5005513;28;20042;-65
2022/04/08 00:32:56;;;;;;;2.75;0.98;;;4.70;99.90;;;;;;5014325;28;20166;-65
2022/04/08 00:35:22;;;;;;;1.35;0.65;;;4.50;99.90;;;;;;5008021;28;20046;-67
2022/04/08 00:37:49;;;;;;;8.35;1.40;;;4.40;99.90;;;;;;5010275;28;20045;-67
2022/04/08 00:40:16;;;;;;;5.32;1.00;;;4.30;99.90;;;;;;5009987;28;20455;-67
2022/04/08 00:42:43;;;;;;;5.70;1.15;;;4.30;99.90;;;;;;5019268;28;20046;-66
2022/04/08 00:45:09;;;;;;;6.15;1.50;;;4.30;99.90;;;;;;5016264;28;20423;-66
2022/04/08 00:47:37;;;;;;;7.45;1.17;;;4.40;99.90;;;;;;5002921;28;20054;-66
2022/04/08 00:50:06;;;;;;;5.82;1.40;;;4.30;99.90;;;;;;4998995;28;20050;-66
2022/04/08 00:52:33;;;;;;;6.68;1.83;;;4.30;99.90;;;;;;5004384;28;20080;-65
2022/04/08 00:55:03;;;;;;;8.25;1.60;;;4.30;99.90;;;;;;5016299;28;20483;-67
2022/04/08 00:57:30;;;;;;;8.43;1.67;;;4.30;99.90;;;;;;5012133;28;20050;-67
2022/04/08 00:59:56;;;;;;;9.63;2.53;;;4.30;99.90;;;;;;4997331;28;20053;-67
2022/04/08 01:02:22;;;;;;;13.27;1.77;;;4.30;99.90;;;;;;4999549;28;20061;-67
2022/04/08 01:04:47;;;;;;;10.75;1.83;;;4.30;99.90;;;;;;5002711;28;20476;-67
2022/04/08 01:07:14;;;;;;;19.60;3.03;;;4.20;99.90;;;;;;5022055;28;20042;-69
2022/04/08 01:09:40;;;;;;;16.25;2.60;;;4.10;99.90;;;;;;5006889;28;20054;-67
2022/04/08 01:12:06;;;;;;;14.93;2.90;;;4.10;99.90;;;;;;5012274;28;20073;-66
2022/04/08 01:14:32;;;;;;;16.45;2.08;;;4.00;99.90;;;;;;5017074;28;20411;-66
2022/04/08 01:16:57;;;;;;;20.50;3.70;;;4.00;99.90;;;;;;5018522;28;20381;-65
2022/04/08 01:19:24;;;;;;;13.18;2.25;;;3.90;99.90;;;;;;5015007;28;20046;-67
2022/04/08 01:21:51;;;;;;;15.02;3.17;;;4.00;99.90;;;;;;5016914;28;21459;-65
2022/04/08 01:24:17;;;;;;;14.60;2.58;;;3.80;99.90;;;;;;5012777;28;20038;-65
2022/04/08 01:26:43;;;;;;;16.73;2.65;;;3.80;99.90;;;;;;5003440;28;20143;-65
2022/04/08 01:29:08;;;;;;;12.68;2.58;;;3.80;99.90;;;;;;5016480;28;20049;-65
2022/04/08 01:31:34;;;;;;;19.92;2.00;;;3.80;99.90;;;;;;5018407;28;20154;-66
2022/04/08 01:34:00;;;;;;;12.07;2.08;;;3.80;99.90;;;;;;4995283;28;20045;-65
2022/04/08 01:36:26;;;;;;;15.90;2.83;;;3.80;99.90;;;;;;5002313;28;20064;-65
2022/04/08 01:38:51;;;;;;;24.98;2.88;;;3.90;99.90;;;;;;5002138;28;20109;-65
2022/04/08 01:41:18;;;;;;;12.88;2.83;;;3.80;99.90;;;;;;5010880;28;20054;-65
2022/04/08 01:43:44;;;;;;;14.95;2.17;;;3.80;99.90;;;;;;5012722;28;20054;-67
2022/04/08 01:46:10;;;;;;;16.20;2.53;;;3.90;99.90;;;;;;5002746;28;20077;-67
2022/04/08 01:48:36;;;;;;;18.45;2.47;;;3.90;99.90;;;;;;5004016;28;20074;-66
2022/04/08 01:51:01;;;;;;;13.38;3.15;;;3.90;99.90;;;;;;5021381;28;20042;-65
2022/04/08 01:53:27;;;;;;;13.20;2.35;;;3.90;99.90;;;;;;5004304;28;20121;-65
2022/04/08 01:55:53;;;;;;;10.32;1.73;;;3.90;99.90;;;;;;5002371;28;20572;-64
2022/04/08 01:58:18;;;;;;;15.10;2.42;;;3.90;99.90;;;;;;5000005;28;20038;-66
2022/04/08 02:00:44;;;;;;;17.35;2.08;;;3.90;99.90;;;;;;4996312;28;20404;-66
2022/04/08 02:03:12;;;;;;;7.78;1.80;;;3.90;99.90;;;;;;5003433;28;20065;-66
2022/04/08 02:05:38;;;;;;;7.55;1.90;;;3.90;99.90;;;;;;4999494;28;20042;-65
2022/04/08 02:08:04;;;;;;;9.70;2.55;;;3.90;99.90;;;;;;5020618;28;20119;-66
2022/04/08 02:10:33;;;;;;;13.82;1.98;;;3.80;99.90;;;;;;4998482;28;20038;-66
2022/04/08 02:13:02;;;;;;;10.70;2.55;;;3.90;99.90;;;;;;5023258;28;20042;-66
2022/04/08 02:15:33;;;;;;;21.98;2.58;;;3.80;99.90;;;;;;5007535;28;20045;-66
2022/04/08 02:17:59;;;;;;;18.25;2.53;;;3.90;99.90;;;;;;5007206;28;20496;-66
2022/04/08 02:20:25;;;;;;;12.05;2.15;;;3.80;99.90;;;;;;5021180;28;20126;-65
2022/04/08 02:22:51;;;;;;;23.42;3.30;;;3.90;99.90;;;;;;5001450;28;20053;-65
2022/04/08 02:25:17;;;;;;;15.32;2.10;;;4.00;99.90;;;;;;5005197;28;20033;-65
2022/04/08 02:27:43;;;;;;;12.63;2.65;;;4.00;99.90;;;;;;4993111;28;20058;-65
2022/04/08 02:30:09;;;;;;;14.75;2.30;;;4.00;99.90;;;;;;5001205;28;20082;-66
2022/04/08 02:32:35;;;;;;;16.98;2.20;;;4.10;99.90;;;;;;5004175;28;20443;-65
2022/04/08 02:35:00;;;;;;;17.65;2.40;;;4.10;99.90;;;;;;5001356;28;20034;-65
2022/04/08 02:37:26;;;;;;;10.70;2.45;;;4.20;99.90;;;;;;5001333;28;20141;-66
2022/04/08 02:39:52;;;;;;;11.55;1.58;;;4.10;99.90;;;;;;5000481;28;20057;-65
2022/04/08 02:42:18;;;;;;;15.15;2.55;;;4.10;99.90;;;;;;5007768;28;20121;-66
2022/04/08 02:44:43;;;;;;;11.18;2.38;;;4.10;99.90;;;;;;5013668;28;20100;-63
2022/04/08 02:47:09;;;;;;;13.57;1.90;;;4.10;99.90;;;;;;4995711;28;20038;-67
2022/04/08 02:49:34;;;;;;;14.70;2.42;;;4.00;99.90;;;;;;4999804;28;20050;-66
2022/04/08 02:52:00;;;;;;;13.75;1.88;;;3.90;99.90;;;;;;5009453;28;20049;-65
2022/04/08 02:54:26;;;;;;;11.00;2.17;;;4.00;99.90;;;;;;5002034;28;20062;-65
2022/04/08 02:56:52;;;;;;;9.75;2.30;;;4.00;99.90;;;;;;5005913;28;20073;-67
2022/04/08 02:59:17;;;;;;;7.97;2.28;;;3.80;99.90;;;;;;4995662;28;20038;-66
2022/04/08 03:01:43;;;;;;;10.40;2.40;;;4.00;99.90;;;;;;5008425;28;20395;-66
2022/04/08 03:04:09;;;;;;;10.15;1.67;;;3.70;99.90;;;;;;5027290;28;20045;-66
2022/04/08 03:06:36;;;;;;;12.18;2.30;;;3.70;99.90;;;;;;5009983;28;20106;-67
2022/04/08 03:09:02;;;;;;;9.00;2.05;;;3.70;99.90;;;;;;5014286;28;20054;-67
2022/04/08 03:11:28;;;;;;;8.65;1.90;;;3.60;99.90;;;;;;5014815;28;20042;-66
2022/04/08 03:13:54;;;;;;;10.05;2.38;;;4.10;99.90;;;;;;5014139;28;20049;-66
2022/04/08 03:16:19;;;;;;;12.35;2.10;;;3.60;99.90;;;;;;5014780;28;20128;-66
2022/04/08 03:18:48;;;;;;;8.25;1.80;;;3.50;99.90;;;;;;5012812;28;20480;-68
2022/04/08 03:21:14;;;;;;;10.77;2.13;;;3.50;99.90;;;;;;5015601;28;20453;-67
2022/04/08 03:23:39;;;;;;;14.77;2.10;;;3.50;99.90;;;;;;5010407;28;20077;-66
2022/04/08 03:26:08;;;;;;;14.95;1.85;;;3.40;99.90;;;;;;5013584;28;20078;-67
2022/04/08 03:28:34;;;;;;;9.40;1.83;;;3.50;99.90;;;;;;5014833;28;20109;-66
2022/04/08 03:31:01;;;;;;;13.10;1.88;;;3.50;99.90;;;;;;5006640;28;20487;-66
2022/04/08 03:33:27;;;;;;;12.75;1.95;;;3.50;99.90;;;;;;5012353;28;20052;-66
2022/04/08 03:35:53;;;;;;;8.40;1.88;;;3.50;99.90;;;;;;5007450;28;20125;-66
2022/04/08 03:38:18;;;;;;;13.52;2.55;;;3.60;99.90;;;;;;5010163;28;20239;-65
2022/04/08 03:40:44;;;;;;;14.18;2.10;;;3.60;99.90;;;;;;5007106;28;20090;-68
2022/04/08 03:43:09;;;;;;;14.13;2.38;;;3.60;99.90;;;;;;5008719;28;20093;-68
2022/04/08 03:45:35;;;;;;;9.10;1.90;;;3.60;99.90;;;;;;5015923;28;20050;-67
2022/04/08 03:48:02;;;;;;;13.80;2.40;;;3.50;99.90;;;;;;5031407;28;20096;-66
2022/04/08 03:50:30;;;;;;;8.88;2.17;;;3.40;99.90;;;;;;5009050;28;20519;-65
2022/04/08 03:52:56;;;;;;;18.40;2.53;;;3.40;99.90;;;;;;5002781;28;20049;-66
2022/04/08 03:55:22;;;;;;;5.65;1.70;;;3.40;99.90;;;;;;5005464;28;20030;-66
2022/04/08 03:57:47;;;;;;;9.45;2.22;;;3.50;99.90;;;;;;5006397;28;20400;-67
2022/04/08 04:00:13;;;;;;;12.95;1.92;;;3.60;99.90;;;;;;5011603;28;20081;-67
2022/04/08 04:02:39;;;;;;;11.27;1.70;;;3.70;99.90;;;;;;5010626;28;20037;-66
2022/04/08 04:05:05;;;;;;;10.77;1.85;;;3.70;99.90;;;;;;5011182;28;20137;-66
2022/04/08 04:07:34;;;;;;;5.38;1.50;;;3.80;99.90;;;;;;5013570;28;20089;-68
2022/04/08 04:10:00;;;;;;;3.92;1.60;;;3.70;99.90;;;;;;5011043;28;20049;-68
2022/04/08 04:12:29;;;;;;;5.35;1.75;;;3.60;99.90;;;;;;5010713;28;20054;-66
2022/04/08 04:14:55;;;;;;;7.95;1.70;;;3.50;99.90;;;;;;5013594;28;20046;-66
2022/04/08 04:17:22;;;;;;;4.47;1.58;;;3.40;99.90;;;;;;5019213;28;20053;-66
2022/04/08 04:19:48;;;;;;;6.03;1.50;;;3.30;99.90;;;;;;5012621;28;20046;-67
2022/04/08 04:22:14;;;;;;;6.22;1.45;;;3.30;99.90;;;;;;5016009;28;20108;-66
2022/04/08 04:24:39;;;;;;;5.03;1.60;;;3.20;99.90;;;;;;5008875;28;20038;-66
2022/04/08 04:27:05;;;;;;;5.28;1.80;;;3.20;99.90;;;;;;5020109;28;20141;-64
2022/04/08 04:29:31;;;;;;;10.18;1.83;;;3.10;99.90;;;;;;5013536;28;20125;-66
2022/04/08 04:31:59;;;;;;;7.53;1.70;;;3.10;99.90;;;;;;5011469;28;20034;-67
2022/04/08 04:34:25;;;;;;;6.22;1.65;;;3.70;99.90;;;;;;5005225;28;20410;-65
2022/04/08 04:36:51;;;;;;;7.68;1.70;;;3.10;99.90;;;;;;5014263;28;20068;-65
2022/04/08 04:39:17;;;;;;;9.25;1.92;;;3.10;99.90;;;;;;5010777;28;20476;-65
2022/04/08 04:41:42;;;;;;;9.65;2.00;;;3.10;99.90;;;;;;5014350;28;20129;-67
2022/04/08 04:44:08;;;;;;;10.90;1.55;;;3.00;99.90;;;;;;4998655;28;20057;-67
2022/04/08 04:46:34;;;;;;;5.28;1.30;;;3.00;99.90;;;;;;5005510;28;20038;-66
2022/04/08 04:48:59;;;;;;;11.20;2.00;;;3.00;99.90;;;;;;4998447;28;20042;-66
2022/04/08 04:51:26;;;;;;;14.00;1.75;;;3.40;99.90;;;;;;5002093;28;20049;-67
2022/04/08 04:53:52;;;;;;;8.75;1.80;;;3.10;99.90;;;;;;5011822;28;20070;-65
2022/04/08 04:56:18;;;;;;;7.60;1.67;;;3.10;99.90;;;;;;5004679;28;20042;-67
2022/04/08 04:58:43;;;;;;;5.82;1.77;;;3.00;99.90;;;;;;5017369;28;20046;-67
2022/04/08 05:01:09;;;;;;;7.57;1.85;;;3.00;99.90;;;;;;5005450;28;20048;-68
2022/04/08 05:03:35;;;;;;;5.45;1.95;;;3.10;99.90;;;;;;5019247;28;20042;-67
2022/04/08 05:06:00;;;;;;;14.45;2.00;;;3.00;99.90;;;;;;5005869;28;20042;-66
2022/04/08 05:08:26;;;;;;;9.90;2.05;;;3.00;99.90;;;;;;5007875;28;20089;-67
2022/04/08 05:10:51;;;;;;;10.10;2.28;;;4.70;99.90;;;;;;5001156;28;20042;-67
2022/04/08 05:13:19;;;;;;;9.10;2.22;;;3.10;99.90;;;;;;5006796;28;20100;-66
2022/04/08 05:15:45;;;;;;;12.77;2.42;;;3.20;99.90;;;;;;5000176;28;20124;-68
2022/04/08 05:18:11;;;;;;;5.07;1.92;;;3.20;99.90;;;;;;5003978;28;20543;-67
2022/04/08 05:20:37;;;;;;;4.22;1.60;;;3.20;99.90;;;;;;5013625;28;20061;-67
2022/04/08 05:23:02;;;;;;;6.15;1.90;;;3.20;99.90;;;;;;5022507;28;20045;-66
2022/04/08 05:25:28;;;;;;;6.55;1.90;;;3.20;99.90;;;;;;5023202;28;20038;-67
2022/04/08 05:27:54;;;;;;;8.20;1.80;;;3.10;99.90;;;;;;5017168;28;20049;-67
2022/04/08 05:30:20;;;;;;;6.85;2.15;;;3.10;99.90;;;;;;5035443;28;20106;-65
2022/04/08 05:32:46;;;;;;;4.68;1.65;;;3.10;99.90;;;;;;5025681;28;20042;-69
2022/04/08 05:35:14;;;;;;;6.88;1.98;;;3.10;99.90;;;;;;5024926;28;20108;-67
2022/04/08 05:37:44;;;;;;;7.70;2.00;;;3.10;99.90;;;;;;5011565;28;20046;-67
2022/04/08 05:40:18;;;;;;;13.23;1.95;;;3.20;99.90;;;;;;5003743;28;20061;-67
2022/04/08 05:42:45;;;;;;;4.43;1.70;;;3.20;99.90;;;;;;5022842;28;20510;-67
2022/04/08 05:45:11;;;;;;;6.50;1.77;;;3.30;99.90;;;;;;5011532;28;20716;-66
2022/04/08 05:47:38;;;;;;;9.63;2.28;;;3.30;99.90;;;;;;5012530;28;20069;-66
2022/04/08 05:50:05;;;;;;;8.52;1.88;;;3.40;99.90;;;;;;5004058;28;20038;-65
2022/04/08 05:52:31;;;;;;;9.60;2.08;;;3.50;99.90;;;;;;5004930;28;20038;-67
2022/04/08 05:54:57;;;;;;;6.03;1.83;;;3.50;99.90;;;;;;5016916;28;20091;-68
2022/04/08 05:57:23;;;;;;;6.55;1.50;;;3.60;99.90;;;;;;5019418;28;20111;-67
2022/04/08 05:59:49;;;;;;;3.47;1.80;;;3.60;99.90;;;;;;5002412;28;20487;-66
2022/04/08 06:02:16;;;;;;;7.57;2.10;;;3.60;99.90;;;;;;5012721;28;20061;-66
2022/04/08 06:04:42;;;;;;;3.53;1.80;;;3.70;99.90;;;;;;5009659;28;20075;-67
2022/04/08 06:07:08;;;;;;;5.45;1.98;;;3.70;99.90;;;;;;5010121;28;20038;-65
2022/04/08 06:09:34;;;;;;;4.72;2.00;;;3.80;99.90;;;;;;5009809;28;20125;-67
2022/04/08 06:12:00;;;;;;;12.70;1.90;;;3.90;99.90;;;;;;5013810;28;20111;-67
2022/04/08 06:14:26;;;;;;;4.18;1.77;;;4.00;99.90;;;;;;5013666;28;20042;-66
2022/04/08 06:16:52;;;;;;;7.07;1.85;;;4.50;99.90;;;;;;5021815;28;20176;-66
2022/04/08 06:19:18;;;;;;;6.40;1.90;;;4.10;99.90;;;;;;5007305;28;20073;-67
2022/04/08 06:21:44;;;;;;;9.10;2.05;;;4.20;99.90;;;;;;5013808;28;20050;-66
2022/04/08 06:24:10;;;;;;;8.85;2.20;;;4.20;99.90;;;;;;5016154;28;20049;-67
2022/04/08 06:26:36;;;;;;;10.13;2.10;;;4.30;99.90;;;;;;5014364;28;20049;-66
2022/04/08 06:29:04;;;;;;;12.73;2.40;;;4.50;99.90;;;;;;5013727;28;20121;-67
2022/04/08 06:31:31;;;;;;;8.88;1.85;;;4.60;99.90;;;;;;5014099;28;20397;-67
2022/04/08 06:34:01;;;;;;;9.57;1.95;;;4.70;99.90;;;;;;5015187;28;20042;-66
2022/04/08 06:36:28;;;;;;;9.10;2.50;;;4.90;99.90;;;;;;5011358;28;20051;-65
2022/04/08 06:38:54;;;;;;;10.10;2.00;;;5.20;99.90;;;;;;5011708;28;20401;-67
2022/04/08 06:41:20;;;;;;;8.23;2.13;;;5.60;99.90;;;;;;5018006;28;20044;-66
2022/04/08 06:43:45;;;;;;;6.40;1.65;;;6.10;99.90;;;;;;5018943;28;20115;-66
2022/04/08 06:46:11;;;;;;;10.63;2.10;;;6.50;99.90;;;;;;5000546;28;20061;-67
2022/04/08 06:48:37;;;;;;;12.63;2.33;;;6.90;99.90;;;;;;5017782;28;20046;-66
2022/04/08 06:51:06;;;;;;;10.38;1.98;;;7.40;99.90;;;;;;5016369;28;20052;-68
2022/04/08 06:53:32;;;;;;;7.18;1.80;;;7.70;99.90;;;;;;5017128;28;20477;-67
2022/04/08 06:55:59;;;;;;;9.30;2.22;;;7.90;99.90;;;;;;5017284;28;20037;-68
2022/04/08 06:58:27;;;;;;;10.20;2.08;;;7.90;99.90;;;;;;5013679;28;20033;-66
2022/04/08 07:00:54;;;;;;;6.93;1.88;;;7.60;99.90;;;;;;5016300;28;20037;-67
2022/04/08 07:03:20;;;;;;;7.82;2.15;;;7.40;99.90;;;;;;5015100;28;20053;-67
2022/04/08 07:05:46;;;;;;;9.65;2.45;;;7.40;99.90;;;;;;5006134;28;20065;-68
2022/04/08 07:08:11;;;;;;;9.70;2.90;;;7.70;99.90;;;;;;4994916;28;20480;-67
2022/04/08 07:10:40;;;;;;;17.00;2.15;;;8.00;99.90;;;;;;5009314;28;20042;-67
2022/04/08 07:13:09;;;;;;;9.50;1.98;;;8.00;99.90;;;;;;5015681;28;20392;-68
2022/04/08 07:15:35;;;;;;;5.88;1.90;;;8.00;99.90;;;;;;5015535;28;20049;-67
2022/04/08 07:18:03;;;;;;;7.32;2.10;;;8.10;99.90;;;;;;5015302;28;20450;-66
2022/04/08 07:20:28;;;;;;;11.20;2.40;;;8.30;99.90;;;;;;4996068;28;20081;-68
2022/04/08 07:22:54;;;;;;;7.57;2.10;;;8.00;99.90;;;;;;5009143;28;20073;-67
2022/04/08 07:25:23;;;;;;;8.85;2.00;;;8.00;99.90;;;;;;5014913;28;20134;-69
2022/04/08 07:27:55;;;;;;;9.27;1.90;;;7.90;99.90;;;;;;5030803;28;20120;-68
2022/04/08 07:30:22;;;;;;;8.10;1.90;;;7.80;99.90;;;;;;5014495;28;20046;-67
2022/04/08 07:32:52;;;;;;;5.45;2.05;;;7.80;99.90;;;;;;5015911;28;20065;-67
2022/04/08 07:35:18;;;;;;;10.82;2.58;;;8.90;99.90;;;;;;5016005;28;20050;-68
2022/04/08 07:37:44;;;;;;;6.20;2.10;;;7.80;99.90;;;;;;5015633;28;20133;-67
2022/04/08 07:40:12;;;;;;;12.07;2.42;;;7.80;99.90;;;;;;5015842;28;20125;-70
2022/04/08 07:42:38;;;;;;;12.05;2.42;;;7.70;99.90;;;;;;5014327;28;20483;-67
2022/04/08 07:45:06;;;;;;;7.35;2.22;;;7.70;99.90;;;;;;5013156;28;20084;-67
2022/04/08 07:47:32;;;;;;;8.82;2.22;;;7.70;99.90;;;;;;4997613;28;20054;-67
2022/04/08 07:49:58;;;;;;;8.75;1.90;;;7.70;99.90;;;;;;5015581;28;20052;-68
2022/04/08 07:52:25;;;;;;;5.75;1.65;;;7.70;99.90;;;;;;5014222;28;20041;-67
2022/04/08 07:54:51;;;;;;;7.32;1.70;;;7.50;99.90;;;;;;5015558;28;20082;-67
2022/04/08 07:57:21;;;;;;;7.43;1.60;;;7.60;99.90;;;;;;5012949;28;20468;-67
2022/04/08 07:59:46;;;;;;;5.45;1.63;;;7.50;99.90;;;;;;5014696;28;20423;-68
2022/04/08 08:02:12;;;;;;;9.95;2.38;;;7.60;99.90;;;;;;5013671;28;20049;-68
2022/04/08 08:04:41;;;;;;;5.22;1.55;;;7.60;99.90;;;;;;4995526;28;20404;-67
2022/04/08 08:07:07;;;;;;;10.05;2.05;;;7.80;99.90;;;;;;5004384;28;20313;-68
2022/04/08 08:09:33;;;;;;;5.90;1.65;;;8.00;99.90;;;;;;5010196;28;20053;-68
2022/04/08 08:12:03;;;;;;;9.50;2.03;;;8.10;99.90;;;;;;5013388;28;20184;-66
2022/04/08 08:14:30;;;;;;;8.50;2.03;;;8.30;99.90;;;;;;5011578;28;20042;-68
2022/04/08 08:16:56;;;;;;;9.48;1.77;;;8.40;99.90;;;;;;5009079;28;20458;-68
2022/04/08 08:19:22;;;;;;;8.35;2.08;;;8.50;99.90;;;;;;5013003;28;20081;-69
2022/04/08 08:21:47;;;;;;;10.52;1.75;;;8.60;99.90;;;;;;5014001;28;20089;-67
2022/04/08 08:24:13;;;;;;;9.57;2.60;;;8.70;99.90;;;;;;5001458;28;20054;-67
2022/04/08 08:26:39;;;;;;;17.08;3.10;;;8.80;99.90;;;;;;4994972;28;20089;-68
2022/04/08 08:29:05;;;;;;;8.60;2.05;;;8.80;99.90;;;;;;4998059;28;20045;-67
2022/04/08 08:31:31;;;;;;;10.27;2.03;;;8.60;99.90;;;;;;5014454;28;20042;-67
2022/04/08 08:33:56;;;;;;;10.38;2.28;;;8.70;99.90;;;;;;5013126;28;20479;-67
2022/04/08 08:36:22;;;;;;;11.60;1.92;;;8.60;99.90;;;;;;5013418;28;20045;-67
2022/04/08 08:38:49;;;;;;;9.45;1.80;;;8.50;99.90;;;;;;5014267;28;20484;-67
2022/04/08 08:41:19;;;;;;;8.85;1.67;;;8.30;99.90;;;;;;5012865;28;20437;-67
2022/04/08 08:43:47;;;;;;;7.25;1.38;;;8.20;99.90;;;;;;5012847;28;20049;-67
2022/04/08 08:46:15;;;;;;;5.60;1.40;;;8.30;99.90;;;;;;5013287;28;20045;-68
2022/04/08 08:48:44;;;;;;;6.93;1.75;;;8.60;99.90;;;;;;5014024;28;20488;-66
2022/04/08 08:51:13;;;;;;;8.93;1.45;;;8.70;99.90;;;;;;5028825;28;20091;-67
2022/04/08 08:53:39;;;;;;;9.45;1.58;;;8.60;99.90;;;;;;5013155;28;20523;-67
2022/04/08 08:56:06;;;;;;;5.30;1.70;;;8.30;99.90;;;;;;5003681;28;20125;-67
2022/04/08 08:58:34;;;;;;;7.03;1.73;;;8.70;99.90;;;;;;4993584;28;20047;-67
2022/04/08 09:01:00;;;;;;;6.47;1.58;;;8.70;99.90;;;;;;5007227;28;20121;-68
2022/04/08 09:03:33;;;;;;;5.60;1.40;;;9.00;99.90;;;;;;5013000;28;20398;-68
2022/04/08 09:06:08;;;;;;;9.70;1.90;;;9.40;99.90;;;;;;5008278;28;20048;-68
2022/04/08 09:08:35;;;;;;;8.20;1.50;;;9.60;99.90;;;;;;4992988;28;20050;-67
2022/04/08 09:11:05;;;;;;;9.52;1.90;;;9.30;99.90;;;;;;4993255;28;20416;-67
2022/04/08 09:13:41;;;;;;;3.13;1.30;;;8.80;99.90;;;;;;5010991;28;20050;-67
2022/04/08 09:16:06;;;;;;;4.72;1.60;;;8.20;99.90;;;;;;5013287;28;20054;-67
2022/04/08 09:18:36;;;;;;;6.20;1.58;;;7.80;99.90;;;;;;5029730;28;20041;-66
2022/04/08 09:21:02;;;;;;;7.80;1.65;;;7.50;99.90;;;;;;5012313;28;20074;-69
2022/04/08 09:23:29;;;;;;;8.80;2.25;;;7.60;99.90;;;;;;5013180;28;20388;-66
2022/04/08 09:26:03;;;;;;;9.52;1.80;;;7.60;99.90;;;;;;5010285;28;20120;-68
2022/04/08 09:28:40;;;;;;;7.50;2.05;;;8.10;99.90;;;;;;4993898;28;20477;-68
2022/04/08 09:31:15;;;;;;;7.40;1.70;;;8.30;99.90;;;;;;5007596;28;20049;-68
2022/04/08 09:33:50;;;;;;;9.18;2.10;;;8.50;99.90;;;;;;5013466;28;20103;-67
2022/04/08 09:36:45;;;;;;;8.38;1.83;;;8.60;99.90;;;;;;5011446;28;20050;-67
2022/04/08 09:39:11;;;;;;;7.35;2.25;;;8.80;99.90;;;;;;5000009;28;20502;-69
2022/04/08 09:41:44;;;;;;;4.07;1.35;;;8.30;99.90;;;;;;5012713;28;20197;-67
2022/04/08 09:44:11;;;;;;;5.57;1.80;;;7.90;99.90;;;;;;5013794;28;20053;-67
2022/04/08 09:46:38;;;;;;;4.75;1.42;;;7.80;99.90;;;;;;4995195;28;20045;-68
2022/04/08 09:49:05;;;;;;;4.97;1.73;;;8.10;99.90;;;;;;5009956;28;20053;-68
2022/04/08 09:51:39;;;;;;;8.57;1.88;;;8.40;99.90;;;;;;5013012;28;20049;-67
2022/04/08 09:54:12;;;;;;;4.55;1.42;;;8.60;99.90;;;;;;5028074;28;20072;-67
2022/04/08 09:56:42;;;;;;;6.07;1.45;;;8.80;99.90;;;;;;5013187;28;20046;-68
2022/04/08 09:59:22;;;;;;;9.48;1.65;;;9.10;99.90;;;;;;5012960;28;20045;-67
2022/04/08 10:01:51;;;;;;;8.27;1.50;;;9.70;99.90;;;;;;5011202;28;20416;-68
2022/04/08 10:04:19;;;;;;;8.50;1.80;;;9.80;99.90;;;;;;5013071;28;20049;-68
2022/04/08 10:06:45;;;;;;;;;;;10.10;99.90;;;;;;5002585;28;20488;-67
2022/04/08 10:09:13;;;;;;;5.63;1.48;;;10.40;99.90;;;;;;4991357;28;20009;-67
2022/04/08 10:11:52;;;;;;;5.95;1.73;;;10.40;99.90;;;;;;5002041;28;20054;-67
2022/04/08 10:14:46;;;;;;;7.95;1.52;;;10.00;99.90;;;;;;4993281;28;20400;-67
2022/04/08 10:17:13;;;;;;;10.40;1.60;;;9.50;99.90;;;;;;4991969;28;20195;-67
2022/04/08 10:19:38;;;;;;;4.32;1.15;;;9.10;99.90;;;;;;5007197;28;20068;-69
2022/04/08 10:22:18;;;;;;;7.05;1.30;;;9.30;99.90;;;;;;5011340;28;20488;-68
2022/04/08 10:24:53;;;;;;;5.55;1.67;;;8.40;99.90;;;;;;5011093;28;20088;-68
2022/04/08 10:27:38;;;;;;;4.28;1.35;;;8.20;99.90;;;;;;5011065;28;20060;-68
2022/04/08 10:30:21;;;;;;;4.70;1.40;;;8.40;99.90;;;;;;5012580;28;20200;-67
2022/04/08 10:33:02;;;;;;;6.05;1.50;;;8.90;99.90;;;;;;5027930;28;20041;-68
2022/04/08 10:35:28;;;;;;;7.97;1.70;;;9.30;99.90;;;;;;5011842;28;20048;-69
2022/04/08 10:37:59;;;;;;;9.80;1.60;;;9.40;99.90;;;;;;5000068;28;20053;-67
2022/04/08 10:40:43;;;;;;;4.88;1.42;;;9.30;99.90;;;;;;5011140;28;20184;-68
2022/04/08 10:43:13;;;;;;;7.80;1.70;;;9.50;99.90;;;;;;5011919;28;20045;-68
2022/04/08 10:45:39;;;;;;;4.00;1.30;;;9.70;99.90;;;;;;5012386;28;20094;-67
2022/04/08 10:48:14;;;;;;;6.93;1.23;;;9.40;99.90;;;;;;5012150;28;20094;-66
2022/04/08 10:50:40;;;;;;;4.45;1.02;;;9.00;99.90;;;;;;5012021;28;20046;-68
2022/04/08 10:53:11;;;;;;;6.95;1.52;;;8.50;99.90;;;;;;4994620;28;20038;-69
2022/04/08 10:56:07;;;;;;;4.60;1.25;;;7.90;99.90;;;;;;4982952;28;20418;-68
2022/04/08 10:58:42;;;;;;;7.28;1.33;;;7.50;99.90;;;;;;5012040;28;20086;-68
2022/04/08 11:01:15;;;;;;;9.20;1.90;;;7.40;99.90;;;;;;5026502;28;20507;-68
2022/04/08 11:03:46;;;;;;;7.50;1.60;;;7.80;99.90;;;;;;5005834;28;20034;-68
2022/04/08 11:06:15;;;;;;;7.70;2.08;;;8.30;99.90;;;;;;4997334;28;20057;-68
2022/04/08 11:08:41;;;;;;;5.55;1.38;;;9.10;99.90;;;;;;5004759;28;20057;-68
2022/04/08 11:11:09;;;;;;;9.95;1.55;;;9.40;99.90;;;;;;5012056;28;20042;-68
2022/04/08 11:13:34;;;;;;;5.53;1.70;;;9.80;99.90;;;;;;5012069;28;20112;-68
2022/04/08 11:16:03;;;;;;;11.90;1.92;;;10.40;99.90;;;;;;5011917;28;20555;-66
2022/04/08 11:18:29;;;;;;;7.55;1.90;;;10.80;99.90;;;;;;5010451;28;20183;-67
2022/04/08 11:20:55;;;;;;;17.50;2.25;;;11.10;99.90;;;;;;5012929;28;20535;-67
2022/04/08 11:23:30;;;;;;;6.60;1.90;;;11.50;99.90;;;;;;5015442;28;20480;-69
2022/04/08 11:25:56;;;;;;;6.57;1.75;;;11.40;99.90;;;;;;5030767;28;20081;-67
2022/04/08 11:28:25;;;;;;;6.15;1.35;;;11.40;99.90;;;;;;5013526;28;20078;-68
2022/04/08 11:30:56;;;;;;;10.35;1.75;;;11.30;99.90;;;;;;5014018;28;20081;-68
2022/04/08 11:33:22;;;;;;;12.60;2.08;;;11.10;99.90;;;;;;5015439;28;20042;-67
2022/04/08 11:35:55;;;;;;;3.90;1.25;;;10.60;99.90;;;;;;5014979;28;20522;-67
2022/04/08 11:38:20;;;;;;;6.25;1.63;;;10.30;99.90;;;;;;5015448;28;20199;-67
2022/04/08 11:40:46;;;;;;;11.65;1.90;;;10.10;99.90;;;;;;5011275;28;20130;-67
2022/04/08 11:43:15;;;;;;;8.15;1.70;;;10.20;99.90;;;;;;4994558;28;20193;-67
2022/04/08 11:45:42;;;;;;;7.85;1.85;;;10.50;99.90;;;;;;5014984;28;20045;-68
2022/04/08 11:48:13;;;;;;;9.10;1.77;;;10.50;99.90;;;;;;5012617;28;20042;-68
2022/04/08 11:50:40;;;;;;;5.20;1.40;;;10.40;99.90;;;;;;5015096;28;20380;-67
2022/04/08 11:53:14;;;;;;;7.15;1.92;;;10.50;99.90;;;;;;5015072;28;20073;-67
2022/04/08 11:55:50;;;;;;;9.85;1.48;;;10.70;99.90;;;;;;5013294;28;20061;-67
2022/04/08 11:58:19;;;;;;;6.28;1.20;;;11.10;99.90;;;;;;4995431;28;20039;-67
2022/04/08 12:00:50;;;;;;;8.15;1.98;;;11.80;99.90;;;;;;4995444;28;20049;-69
2022/04/08 12:03:23;;;;;;;9.35;1.30;;;12.20;99.90;;;;;;5004323;28;20041;-68
2022/04/08 12:05:50;;;;;;;9.10;1.50;;;12.10;99.90;;;;;;5015010;28;20101;-66
2022/04/08 12:08:17;;;;;;;5.88;1.27;;;12.10;99.90;;;;;;5014809;28;20124;-67
2022/04/08 12:10:43;;;;;;;7.72;1.70;;;11.80;98.30;;;;;;5008334;28;20046;-67
2022/04/08 12:13:16;;;;;;;6.38;1.50;;;11.30;97.60;;;;;;5013375;28;20053;-67
2022/04/08 12:15:48;;;;;;;8.85;2.05;;;11.20;99.90;;;;;;5007676;28;20050;-67
2022/04/08 12:18:21;;;;;;;10.18;1.60;;;11.40;99.90;;;;;;4993887;28;20141;-67
2022/04/08 12:20:53;;;;;;;8.00;1.67;;;11.90;99.90;;;;;;4994871;28;20073;-69
2022/04/08 12:23:21;;;;;;;7.45;1.05;;;12.60;99.90;;;;;;5014182;28;20515;-67
2022/04/08 12:25:55;;;;;;;5.47;1.25;;;13.10;99.20;;;;;;5014532;28;20049;-67
2022/04/08 12:28:30;;;;;;;6.10;1.48;;;13.20;93.90;;;;;;5029712;28;20399;-68
2022/04/08 12:30:55;;;;;;;6.00;1.77;;;13.30;96.10;;;;;;5014268;28;20046;-66
2022/04/08 12:33:21;;;;;;;10.52;1.67;;;13.50;95.50;;;;;;5013021;28;20052;-68
2022/04/08 12:35:48;;;;;;;13.57;1.52;;;13.20;92.20;;;;;;5013484;28;20093;-67
2022/04/08 12:38:19;;;;;;;9.52;1.88;;;12.80;95.20;;;;;;5014591;28;20045;-68
2022/04/08 12:40:46;;;;;;;5.47;1.60;;;12.90;95.80;;;;;;5012689;28;20120;-67
2022/04/08 12:43:12;;;;;;;5.30;1.60;;;12.80;94.90;;;;;;5014160;28;20056;-67
2022/04/08 12:45:37;;;;;;;4.80;1.60;;;12.40;96.20;;;;;;5014348;28;20037;-66
2022/04/08 12:48:04;;;;;;;7.43;1.75;;;11.90;96.90;;;;;;5013585;28;20393;-67
2022/04/08 12:50:30;;;;;;;2.83;1.30;;;11.30;99.10;;;;;;5014307;28;20089;-68
2022/04/08 12:52:56;;;;;;;6.07;1.27;;;10.80;99.90;;;;;;5014002;28;20500;-68
2022/04/08 12:55:22;;;;;;;4.68;1.60;;;10.30;99.90;;;;;;5001951;28;20062;-67